createdAt,value
2023-03-11T00:00:13.404Z,32.21
2023-03-11T00:02:40.235Z,32.42
2023-03-11T00:05:07.039Z,32.26
2023-03-11T00:07:33.535Z,32.46
2023-03-11T00:09:59.840Z,32.54
2023-03-11T00:12:26.142Z,32.60
2023-03-11T00:14:52.464Z,32.50
2023-03-11T00:17:18.776Z,32.65
2023-03-11T00:19:45.086Z,32.31
2023-03-11T00:22:11.453Z,32.40
2023-03-11T00:24:37.849Z,32.67
2023-03-11T00:27:04.248Z,31.93
2023-03-11T00:29:30.778Z,32.11
2023-03-11T00:31:57.137Z,31.88
2023-03-11T00:34:23.497Z,31.83
2023-03-11T00:36:50.315Z,32.05
2023-03-11T00:39:16.626Z,31.85
2023-03-11T00:41:42.931Z,31.99
2023-03-11T00:44:09.253Z,32.04
2023-03-11T00:46:35.673Z,31.92
2023-03-11T00:49:02.069Z,31.97
2023-03-11T00:51:29.290Z,31.91
2023-03-11T00:53:55.603Z,31.82
2023-03-11T00:56:22.146Z,31.76
2023-03-11T00:58:48.460Z,31.83
2023-03-11T01:01:15.617Z,31.87
2023-03-11T01:03:41.948Z,31.71
2023-03-11T01:06:08.288Z,31.73
2023-03-11T01:08:34.600Z,31.86
2023-03-11T01:11:01.021Z,31.87
2023-03-11T01:13:27.700Z,31.91
2023-03-11T01:15:54.078Z,31.86
2023-03-11T01:18:20.576Z,31.91
2023-03-11T01:20:46.900Z,31.89
2023-03-11T01:23:13.215Z,32.02
2023-03-11T01:25:39.536Z,31.99
2023-03-11T01:28:06.457Z,31.81
2023-03-11T01:30:32.793Z,31.77
2023-03-11T01:32:59.114Z,31.87
2023-03-11T01:35:25.685Z,32.03
2023-03-11T01:37:52.860Z,31.64
2023-03-11T01:40:35.705Z,31.88
2023-03-11T01:43:02.168Z,31.99
2023-03-11T01:45:41.680Z,31.77
2023-03-11T01:48:08.440Z,31.95
2023-03-11T01:50:35.855Z,31.89
2023-03-11T01:53:02.888Z,32.00
2023-03-11T01:55:29.289Z,31.78
2023-03-11T01:57:55.615Z,31.88
2023-03-11T02:00:21.945Z,31.80
2023-03-11T02:02:49.459Z,31.77
2023-03-11T02:05:15.792Z,31.71
2023-03-11T02:07:42.117Z,32.00
2023-03-11T02:10:08.909Z,31.92
2023-03-11T02:12:35.479Z,31.75
2023-03-11T02:15:01.886Z,31.64
2023-03-11T02:17:28.283Z,31.79
2023-03-11T02:20:12.213Z,31.82
2023-03-11T02:22:39.837Z,31.60
2023-03-11T02:25:24.638Z,31.82
2023-03-11T02:27:51.714Z,31.77
2023-03-11T02:30:18.225Z,31.61
2023-03-11T02:32:44.715Z,31.91
2023-03-11T02:35:11.104Z,31.74
2023-03-11T02:37:37.429Z,31.60
2023-03-11T02:40:23.421Z,31.92
2023-03-11T02:42:50.164Z,31.96
2023-03-11T02:45:16.710Z,31.68
2023-03-11T02:47:43.043Z,31.64
2023-03-11T02:50:09.685Z,31.53
2023-03-11T02:52:36.044Z,31.88
2023-03-11T02:55:02.349Z,31.96
2023-03-11T02:57:28.672Z,31.60
2023-03-11T02:59:54.977Z,31.75
2023-03-11T03:02:21.299Z,31.73
2023-03-11T03:04:47.615Z,31.79
2023-03-11T03:07:13.943Z,31.67
2023-03-11T03:09:40.254Z,31.65
2023-03-11T03:12:06.690Z,31.71
2023-03-11T03:14:33.046Z,31.75
2023-03-11T03:16:59.521Z,31.58
2023-03-11T03:19:25.941Z,31.59
2023-03-11T03:21:52.275Z,31.54
2023-03-11T03:24:18.605Z,31.47
2023-03-11T03:26:44.929Z,31.69
2023-03-11T03:29:11.242Z,31.43
2023-03-11T03:31:38.103Z,31.59
2023-03-11T03:34:04.430Z,32.01
2023-03-11T03:36:30.760Z,31.64
2023-03-11T03:38:57.415Z,31.51
2023-03-11T03:41:23.750Z,31.71
2023-03-11T03:43:50.068Z,31.72
2023-03-11T03:46:16.526Z,31.62
2023-03-11T03:48:42.918Z,31.64
2023-03-11T03:51:09.928Z,31.29
2023-03-11T03:53:36.427Z,31.30
2023-03-11T03:56:03.902Z,31.46
2023-03-11T03:58:30.213Z,31.34
2023-03-11T04:00:57.192Z,31.49
2023-03-11T04:03:23.790Z,31.43
2023-03-11T04:05:50.127Z,31.57
2023-03-11T04:08:16.457Z,31.49
2023-03-11T04:10:42.781Z,31.65
2023-03-11T04:13:09.131Z,31.58
2023-03-11T04:15:37.249Z,31.35
2023-03-11T04:18:03.961Z,31.39
2023-03-11T04:20:30.275Z,31.61
2023-03-11T04:22:56.635Z,31.61
2023-03-11T04:25:22.956Z,31.55
2023-03-11T04:27:50.068Z,31.63
2023-03-11T04:30:16.429Z,31.67
2023-03-11T04:32:43.399Z,31.55
2023-03-11T04:35:09.793Z,31.60
2023-03-11T04:37:36.401Z,31.38
2023-03-11T04:40:03.547Z,31.51
2023-03-11T04:42:29.869Z,31.58
2023-03-11T04:44:56.245Z,31.35
2023-03-11T04:47:22.656Z,31.26
2023-03-11T04:49:48.988Z,31.38
2023-03-11T04:52:15.564Z,31.31
2023-03-11T04:54:41.890Z,31.21
2023-03-11T04:57:08.393Z,31.27
2023-03-11T04:59:34.702Z,31.31
2023-03-11T05:02:01.029Z,31.43
2023-03-11T05:04:27.471Z,31.33
2023-03-11T05:06:53.873Z,31.54
2023-03-11T05:09:20.184Z,31.33
2023-03-11T05:11:46.508Z,31.40
2023-03-11T05:14:12.828Z,31.50
2023-03-11T05:16:39.137Z,31.41
2023-03-11T05:19:25.416Z,31.37
2023-03-11T05:21:51.785Z,31.41
2023-03-11T05:24:18.087Z,31.39
2023-03-11T05:26:45.035Z,31.46
2023-03-11T05:29:12.648Z,31.28
2023-03-11T05:31:38.981Z,31.30
2023-03-11T05:34:05.312Z,31.38
2023-03-11T05:36:31.625Z,31.27
2023-03-11T05:38:58.087Z,31.26
2023-03-11T05:41:24.411Z,31.30
2023-03-11T05:43:50.748Z,31.27
2023-03-11T05:46:17.083Z,31.22
2023-03-11T05:48:43.429Z,31.34
2023-03-11T05:51:09.983Z,31.17
2023-03-11T05:53:36.329Z,30.89
2023-03-11T05:56:02.726Z,31.04
2023-03-11T05:58:29.149Z,30.97
2023-03-11T06:00:55.619Z,30.86
2023-03-11T06:03:21.943Z,30.77
2023-03-11T06:05:48.661Z,30.81
2023-03-11T06:08:14.982Z,30.92
2023-03-11T06:10:41.428Z,30.88
2023-03-11T06:13:07.760Z,30.90
2023-03-11T06:15:34.337Z,30.78
2023-03-11T06:18:00.908Z,30.79
2023-03-11T06:20:27.692Z,30.60
2023-03-11T06:22:54.027Z,30.81
2023-03-11T06:25:20.340Z,30.89
2023-03-11T06:27:51.444Z,30.86
2023-03-11T06:30:18.098Z,30.87
2023-03-11T06:32:45.322Z,30.81
2023-03-11T06:35:11.709Z,30.60
2023-03-11T06:37:38.061Z,30.69
2023-03-11T06:40:05.616Z,30.57
2023-03-11T06:42:31.949Z,30.56
2023-03-11T06:44:58.508Z,30.48
2023-03-11T06:47:24.836Z,30.67
2023-03-11T06:49:51.413Z,30.54
2023-03-11T06:52:17.720Z,30.51
2023-03-11T06:54:44.339Z,30.63
2023-03-11T06:57:10.665Z,30.86
2023-03-11T06:59:36.984Z,30.84
2023-03-11T07:02:03.929Z,30.67
2023-03-11T07:04:30.917Z,30.74
2023-03-11T07:06:57.243Z,30.69
2023-03-11T07:09:25.159Z,30.44
2023-03-11T07:11:52.052Z,30.46
2023-03-11T07:14:18.763Z,30.76
2023-03-11T07:16:45.326Z,30.51
2023-03-11T07:19:11.933Z,30.75
2023-03-11T07:21:38.244Z,30.71
2023-03-11T07:24:04.653Z,30.66
2023-03-11T07:26:31.083Z,30.53
2023-03-11T07:28:57.556Z,30.55
2023-03-11T07:31:24.810Z,30.68
2023-03-11T07:33:51.227Z,30.66
2023-03-11T07:36:18.665Z,30.78
2023-03-11T07:38:45.033Z,30.59
2023-03-11T07:41:11.579Z,30.53
2023-03-11T07:43:37.947Z,30.62
2023-03-11T07:46:11.392Z,30.42
2023-03-11T07:48:38.095Z,30.59
2023-03-11T07:51:04.369Z,30.74
2023-03-11T07:53:30.760Z,30.65
2023-03-11T07:55:59.907Z,30.52
2023-03-11T07:58:26.240Z,30.90
2023-03-11T08:00:52.589Z,30.77
2023-03-11T08:03:19.087Z,30.89
2023-03-11T08:05:45.411Z,31.18
2023-03-11T08:08:11.733Z,31.27
2023-03-11T08:10:38.228Z,30.93
2023-03-11T08:13:04.572Z,31.11
2023-03-11T08:15:30.906Z,31.13
2023-03-11T08:17:57.249Z,31.12
2023-03-11T08:20:23.561Z,31.09
2023-03-11T08:22:58.067Z,30.95
2023-03-11T08:25:24.804Z,30.83
2023-03-11T08:27:51.131Z,30.91
2023-03-11T08:30:17.737Z,30.92
2023-03-11T08:32:44.276Z,31.07
2023-03-11T08:35:10.641Z,30.78
2023-03-11T08:37:37.134Z,30.96
2023-03-11T08:40:03.725Z,30.56
2023-03-11T08:42:30.043Z,30.66
2023-03-11T08:44:56.383Z,30.72
2023-03-11T08:47:22.760Z,30.73
2023-03-11T08:49:49.162Z,30.69
2023-03-11T08:52:15.500Z,30.63
2023-03-11T08:54:42.636Z,30.77
2023-03-11T08:57:09.117Z,30.73
2023-03-11T08:59:36.199Z,30.33
2023-03-11T09:02:02.555Z,30.35
2023-03-11T09:04:28.926Z,29.92
2023-03-11T09:06:55.248Z,29.76
2023-03-11T09:09:21.570Z,29.66
2023-03-11T09:11:48.035Z,29.65
2023-03-11T09:14:14.367Z,29.68
2023-03-11T09:16:40.689Z,29.58
2023-03-11T09:19:07.526Z,29.45
2023-03-11T09:21:34.192Z,29.13
2023-03-11T09:24:00.819Z,28.84
2023-03-11T09:26:27.362Z,28.88
2023-03-11T09:28:53.712Z,28.52
2023-03-11T09:31:20.053Z,28.54
2023-03-11T09:33:46.931Z,28.63
2023-03-11T09:36:14.048Z,28.42
2023-03-11T09:38:40.647Z,28.25
2023-03-11T09:41:25.409Z,28.01
2023-03-11T09:44:07.215Z,28.20
2023-03-11T09:46:41.780Z,27.85
2023-03-11T09:49:23.473Z,28.05
2023-03-11T09:51:52.957Z,27.79
2023-03-11T09:54:19.493Z,27.86
2023-03-11T09:56:45.803Z,27.79
2023-03-11T09:59:15.827Z,27.89
2023-03-11T10:01:42.796Z,27.85
2023-03-11T10:04:20.180Z,28.08
2023-03-11T10:06:46.752Z,27.99
2023-03-11T10:09:34.034Z,28.03
2023-03-11T10:12:10.100Z,28.26
2023-03-11T10:14:39.918Z,28.13
2023-03-11T10:17:15.416Z,28.24
2023-03-11T10:19:47.692Z,28.15
2023-03-11T10:22:15.905Z,28.26
2023-03-11T10:24:45.956Z,27.97
2023-03-11T10:27:14.715Z,28.07
2023-03-11T10:29:53.064Z,28.07
2023-03-11T10:32:27.186Z,27.73
2023-03-11T10:35:04.754Z,27.95
2023-03-11T10:37:48.348Z,28.07
2023-03-11T10:40:26.560Z,27.98
2023-03-11T10:42:53.332Z,27.89
2023-03-11T10:45:20.917Z,28.28
2023-03-11T10:47:49.465Z,28.08
2023-03-11T10:50:16.066Z,28.11
2023-03-11T10:52:43.920Z,28.32
2023-03-11T10:55:11.684Z,28.55
2023-03-11T10:57:38.844Z,28.62
2023-03-11T11:00:17.203Z,28.77
2023-03-11T11:02:50.230Z,28.92
2023-03-11T11:05:22.709Z,28.68
2023-03-11T11:07:49.381Z,28.65
2023-03-11T11:10:19.920Z,28.74
2023-03-11T11:12:54.098Z,28.78
2023-03-11T11:15:24.129Z,28.77
2023-03-11T11:17:50.725Z,28.99
2023-03-11T11:20:17.537Z,29.03
2023-03-11T11:22:54.140Z,28.82
2023-03-11T11:25:30.703Z,29.00
2023-03-11T11:28:00.839Z,29.25
2023-03-11T11:30:27.217Z,28.91
2023-03-11T11:32:55.453Z,28.92
2023-03-11T11:35:23.118Z,29.09
2023-03-11T11:37:53.300Z,29.09
2023-03-11T11:40:25.639Z,28.93
2023-03-11T11:42:56.303Z,29.18
2023-03-11T11:45:24.347Z,29.45
2023-03-11T11:47:52.334Z,29.41
2023-03-11T11:50:24.779Z,29.47
2023-03-11T11:52:52.670Z,29.29
2023-03-11T11:55:25.741Z,29.13
2023-03-11T11:57:52.257Z,29.26
2023-03-11T12:00:24.277Z,29.33
2023-03-11T12:03:10.400Z,29.43
2023-03-11T12:05:40.031Z,29.38
2023-03-11T12:08:09.140Z,29.53
2023-03-11T12:11:01.708Z,29.45
2023-03-11T12:13:33.990Z,29.49
2023-03-11T12:16:05.846Z,29.29
2023-03-11T12:18:36.385Z,29.37
2023-03-11T12:21:06.517Z,29.23
2023-03-11T12:23:35.907Z,29.10
2023-03-11T12:26:03.573Z,29.26
2023-03-11T12:28:30.042Z,29.13
2023-03-11T12:30:58.016Z,29.02
2023-03-11T12:33:26.960Z,29.23
2023-03-11T12:35:55.805Z,29.02
2023-03-11T12:38:34.846Z,29.02
2023-03-11T12:41:05.109Z,28.94
2023-03-11T12:43:33.738Z,28.78
2023-03-11T12:46:06.809Z,29.19
2023-03-11T12:48:33.064Z,29.32
2023-03-11T12:50:59.716Z,29.23
2023-03-11T12:53:44.941Z,29.48
2023-03-11T12:56:15.898Z,29.46
2023-03-11T12:58:52.505Z,29.58
2023-03-11T13:01:30.077Z,29.54
2023-03-11T13:04:01.727Z,29.32
2023-03-11T13:06:36.973Z,29.76
2023-03-11T13:09:04.192Z,29.56
2023-03-11T13:11:33.504Z,29.59
2023-03-11T13:14:09.009Z,29.60
2023-03-11T13:16:35.780Z,29.65
2023-03-11T13:19:22.175Z,29.64
2023-03-11T13:21:48.530Z,29.70
2023-03-11T13:24:27.139Z,29.55
2023-03-11T13:26:59.647Z,29.60
2023-03-11T13:29:28.799Z,29.48
2023-03-11T13:32:01.277Z,29.36
2023-03-11T13:34:42.871Z,29.60
2023-03-11T13:37:28.371Z,29.51
2023-03-11T13:40:14.035Z,29.53
2023-03-11T13:42:42.729Z,29.58
2023-03-11T13:45:13.271Z,29.53
2023-03-11T13:47:40.045Z,29.37
2023-03-11T13:50:08.401Z,29.31
2023-03-11T13:52:43.817Z,29.50
2023-03-11T13:55:13.155Z,29.33
2023-03-11T13:57:39.468Z,29.36
2023-03-11T14:00:17.025Z,29.14
2023-03-11T14:02:47.424Z,29.33
2023-03-11T14:05:15.430Z,29.18
2023-03-11T14:07:42.001Z,29.23
2023-03-11T14:10:11.327Z,29.35
2023-03-11T14:12:37.852Z,29.31
2023-03-11T14:15:04.682Z,29.45
2023-03-11T14:17:31.000Z,29.38
2023-03-11T14:20:04.617Z,29.33
2023-03-11T14:22:31.367Z,29.27
2023-03-11T14:25:00.503Z,29.25
2023-03-11T14:27:26.821Z,29.16
2023-03-11T14:29:53.394Z,29.22
2023-03-11T14:32:27.409Z,29.11
2023-03-11T14:34:53.856Z,29.12
2023-03-11T14:37:32.116Z,29.27
2023-03-11T14:39:58.510Z,29.34
2023-03-11T14:42:28.088Z,29.29
2023-03-11T14:45:07.759Z,29.18
2023-03-11T14:47:36.151Z,29.14
2023-03-11T14:50:03.849Z,29.35
2023-03-11T14:52:30.113Z,29.45
2023-03-11T14:54:56.483Z,29.39
2023-03-11T14:57:24.471Z,29.55
2023-03-11T14:59:50.870Z,29.36
2023-03-11T15:02:27.195Z,29.65
2023-03-11T15:04:53.538Z,29.44
2023-03-11T15:07:19.844Z,29.41
2023-03-11T15:09:46.189Z,29.47
2023-03-11T15:12:29.813Z,29.54
2023-03-11T15:14:56.142Z,29.50
2023-03-11T15:17:34.735Z,29.52
2023-03-11T15:20:07.725Z,29.47
2023-03-11T15:22:33.967Z,29.52
2023-03-11T15:25:00.786Z,29.56
2023-03-11T15:27:33.830Z,29.46
2023-03-11T15:30:00.395Z,29.56
2023-03-11T15:32:29.946Z,29.55
2023-03-11T15:35:00.140Z,29.76
2023-03-11T15:37:26.533Z,29.60
2023-03-11T15:39:53.219Z,29.53
2023-03-11T15:42:24.334Z,29.70
2023-03-11T15:45:09.737Z,29.55
2023-03-11T15:47:36.129Z,29.63
2023-03-11T15:50:03.372Z,29.64
2023-03-11T15:52:29.675Z,29.76
2023-03-11T15:54:56.364Z,29.81
2023-03-11T15:57:31.806Z,29.74
2023-03-11T15:59:58.864Z,29.70
2023-03-11T16:02:26.330Z,29.78
2023-03-11T16:04:52.738Z,29.87
2023-03-11T16:07:32.839Z,29.80
2023-03-11T16:10:05.050Z,29.82
2023-03-11T16:12:31.410Z,29.59
2023-03-11T16:14:57.724Z,29.64
2023-03-11T16:17:24.509Z,29.55
2023-03-11T16:19:50.821Z,29.54
2023-03-11T16:22:21.190Z,29.57
2023-03-11T16:24:48.107Z,29.69
2023-03-11T16:27:15.056Z,29.57
2023-03-11T16:29:41.473Z,29.46
2023-03-11T16:32:08.669Z,29.55
2023-03-11T16:34:34.985Z,29.45
2023-03-11T16:37:01.332Z,29.49
2023-03-11T16:39:27.740Z,29.49
2023-03-11T16:41:54.079Z,29.30
2023-03-11T16:44:20.388Z,29.26
2023-03-11T16:46:46.765Z,29.28
2023-03-11T16:49:13.229Z,29.10
2023-03-11T16:51:39.545Z,29.26
2023-03-11T16:54:06.213Z,29.02
2023-03-11T16:56:32.548Z,29.32
2023-03-11T16:58:58.884Z,29.12
2023-03-11T17:01:25.334Z,29.07
2023-03-11T17:03:52.556Z,29.04
2023-03-11T17:06:18.972Z,29.17
2023-03-11T17:08:48.933Z,29.19
2023-03-11T17:11:16.047Z,29.24
2023-03-11T17:13:42.535Z,29.15
2023-03-11T17:16:09.186Z,29.22
2023-03-11T17:18:35.551Z,29.50
2023-03-11T17:21:05.283Z,29.61
2023-03-11T17:23:31.600Z,29.63
2023-03-11T17:26:00.050Z,29.21
2023-03-11T17:28:26.971Z,28.41
2023-03-11T17:30:53.291Z,28.73
2023-03-11T17:33:19.611Z,29.01
2023-03-11T17:35:47.108Z,29.53
2023-03-11T17:38:16.326Z,29.87
2023-03-11T17:40:42.867Z,29.97
2023-03-11T17:43:09.690Z,29.76
2023-03-11T17:45:38.042Z,29.54
2023-03-11T17:48:04.436Z,30.05
2023-03-11T17:50:30.817Z,29.98
2023-03-11T17:52:57.152Z,30.03
2023-03-11T17:55:23.471Z,29.96
2023-03-11T17:57:49.793Z,29.80
2023-03-11T18:00:16.289Z,29.89
2023-03-11T18:02:42.673Z,29.87
2023-03-11T18:05:09.358Z,29.73
2023-03-11T18:07:38.833Z,29.35
2023-03-11T18:10:05.552Z,29.23
2023-03-11T18:12:31.918Z,29.03
2023-03-11T18:14:58.231Z,29.09
2023-03-11T18:17:24.587Z,29.20
2023-03-11T18:19:50.896Z,29.47
2023-03-11T18:22:17.274Z,29.11
2023-03-11T18:24:44.006Z,29.63
2023-03-11T18:27:10.403Z,29.41
2023-03-11T18:29:36.724Z,29.55
2023-03-11T18:32:03.155Z,29.48
2023-03-11T18:34:29.547Z,29.65
2023-03-11T18:36:55.870Z,29.75
2023-03-11T18:39:22.202Z,29.55
2023-03-11T18:41:48.510Z,29.70
2023-03-11T18:44:14.807Z,30.06
2023-03-11T18:46:42.394Z,30.52
2023-03-11T18:49:10.105Z,31.61
2023-03-11T18:51:36.468Z,32.71
2023-03-11T18:54:02.811Z,32.54
2023-03-11T18:56:31.095Z,31.87
2023-03-11T18:58:57.889Z,32.39
2023-03-11T19:01:24.263Z,32.46
2023-03-11T19:03:51.310Z,32.10
2023-03-11T19:06:17.676Z,32.30
2023-03-11T19:08:44.123Z,31.95
2023-03-11T19:11:10.845Z,32.09
2023-03-11T19:13:46.552Z,31.80
2023-03-11T19:16:13.602Z,31.76
2023-03-11T19:18:39.921Z,31.90
2023-03-11T19:21:06.514Z,31.77
2023-03-11T19:23:32.967Z,32.40
2023-03-11T19:26:03.686Z,32.06
2023-03-11T19:28:30.184Z,32.02
2023-03-11T19:30:57.050Z,31.49
2023-03-11T19:33:23.453Z,31.76
2023-03-11T19:35:56.493Z,31.94
2023-03-11T19:38:22.865Z,32.20
2023-03-11T19:40:59.552Z,31.99
2023-03-11T19:43:25.945Z,31.76
2023-03-11T19:45:52.370Z,31.95
2023-03-11T19:48:20.005Z,31.78
2023-03-11T19:50:49.894Z,31.81
2023-03-11T19:53:16.397Z,31.72
2023-03-11T19:55:44.145Z,31.96
2023-03-11T19:58:10.473Z,31.68
2023-03-11T20:00:36.859Z,31.40
2023-03-11T20:03:03.239Z,31.62
2023-03-11T20:05:29.597Z,31.40
2023-03-11T20:07:56.011Z,31.76
2023-03-11T20:10:22.355Z,31.51
2023-03-11T20:13:01.482Z,31.73
2023-03-11T20:15:28.517Z,31.69
2023-03-11T20:17:54.895Z,31.53
2023-03-11T20:20:21.788Z,31.71
2023-03-11T20:22:48.173Z,31.98
2023-03-11T20:25:15.994Z,31.80
2023-03-11T20:27:42.697Z,31.46
2023-03-11T20:30:09.267Z,31.52
2023-03-11T20:32:35.638Z,31.79
2023-03-11T20:35:02.017Z,31.78
2023-03-11T20:37:29.332Z,31.59
2023-03-11T20:39:55.669Z,31.84
2023-03-11T20:42:22.015Z,31.81
2023-03-11T20:44:52.020Z,31.54
2023-03-11T20:47:18.407Z,31.40
2023-03-11T20:49:44.806Z,31.44
2023-03-11T20:52:11.145Z,31.48
2023-03-11T20:54:37.705Z,31.43
2023-03-11T20:57:04.663Z,31.40
2023-03-11T20:59:31.063Z,31.00
2023-03-11T21:01:57.572Z,30.69
2023-03-11T21:04:24.502Z,30.55
2023-03-11T21:06:52.393Z,30.54
2023-03-11T21:09:18.809Z,30.18
2023-03-11T21:11:45.156Z,30.35
2023-03-11T21:14:13.860Z,30.48
2023-03-11T21:16:40.353Z,30.38
2023-03-11T21:19:08.725Z,30.25
2023-03-11T21:21:35.600Z,30.34
2023-03-11T21:24:02.213Z,30.29
2023-03-11T21:26:28.537Z,30.04
2023-03-11T21:28:55.039Z,29.99
2023-03-11T21:31:22.130Z,30.07
2023-03-11T21:33:48.713Z,30.13
2023-03-11T21:36:15.472Z,30.06
2023-03-11T21:38:41.953Z,29.99
2023-03-11T21:41:09.350Z,29.99
2023-03-11T21:43:35.851Z,29.92
2023-03-11T21:46:02.403Z,29.71
2023-03-11T21:48:28.983Z,29.88
2023-03-11T21:50:55.446Z,30.30
2023-03-11T21:53:21.901Z,29.73
2023-03-11T21:55:48.393Z,29.31
2023-03-11T21:58:14.909Z,29.19
2023-03-11T22:00:41.381Z,29.09
2023-03-11T22:03:07.803Z,29.11
2023-03-11T22:05:34.101Z,28.97
2023-03-11T22:08:00.444Z,29.05
2023-03-11T22:10:26.795Z,29.15
2023-03-11T22:12:53.476Z,29.31
2023-03-11T22:15:19.858Z,28.92
2023-03-11T22:17:46.390Z,29.30
2023-03-11T22:20:13.477Z,29.23
2023-03-11T22:22:39.929Z,29.21
2023-03-11T22:25:06.479Z,29.07
2023-03-11T22:27:32.862Z,29.11
2023-03-11T22:29:59.167Z,29.39
2023-03-11T22:32:25.601Z,29.41
2023-03-11T22:34:51.967Z,29.62
2023-03-11T22:37:18.283Z,29.29
2023-03-11T22:39:44.629Z,29.21
2023-03-11T22:42:11.004Z,29.50
2023-03-11T22:44:37.368Z,29.59
2023-03-11T22:47:03.687Z,29.60
2023-03-11T22:49:30.119Z,29.47
2023-03-11T22:51:56.423Z,29.66
2023-03-11T22:54:22.771Z,29.75
2023-03-11T22:56:49.110Z,29.79
2023-03-11T22:59:15.740Z,29.53
2023-03-11T23:01:42.405Z,29.87
2023-03-11T23:04:09.016Z,29.97
2023-03-11T23:06:35.363Z,30.01
2023-03-11T23:09:02.214Z,29.96
2023-03-11T23:11:28.537Z,29.99
2023-03-11T23:13:56.755Z,30.20
2023-03-11T23:16:23.275Z,30.03
2023-03-11T23:18:50.383Z,30.08
2023-03-11T23:21:17.660Z,30.08
2023-03-11T23:23:44.070Z,30.21
2023-03-11T23:26:10.495Z,30.58
2023-03-11T23:28:36.889Z,30.11
2023-03-11T23:31:04.245Z,30.01
2023-03-11T23:33:30.925Z,29.95
2023-03-11T23:36:00.976Z,29.92
2023-03-11T23:38:27.661Z,29.97
2023-03-11T23:40:53.985Z,30.03
2023-03-11T23:43:20.316Z,30.11
2023-03-11T23:45:46.665Z,29.84
2023-03-11T23:48:13.062Z,29.87
2023-03-11T23:50:39.676Z,29.92
2023-03-11T23:53:06.010Z,29.93
2023-03-11T23:55:32.360Z,29.69
2023-03-11T23:57:58.695Z,29.80
